Time;durP1;ratioP1;P1;durP2;ratioP2;P2;SDS_P1;SDS_P2;PMS_P1;PMS_P2;Temp;Humidity;BMP_temperature;BMP_pressure;BME280_temperature;BME280_humidity;BME280_pressure;Samples;Min_cycle;Max_cycle;Signal;HPM_P1;HPM_P2
2021/04/29 00:01:03;;;;;;;10.73;6.70;;;8.40;99.90;;;;;;6154987;23;20017;-81
2021/04/29 00:03:29;;;;;;;12.73;7.82;;;8.40;99.90;;;;;;6183329;23;20032;-81
2021/04/29 00:05:55;;;;;;;19.55;8.13;;;8.40;99.90;;;;;;6155455;23;20017;-81
2021/04/29 00:08:21;;;;;;;18.73;8.00;;;8.50;99.90;;;;;;6156908;23;20063;-81
2021/04/29 00:10:47;;;;;;;14.32;7.95;;;8.40;99.90;;;;;;6156940;23;20021;-81
2021/04/29 00:13:13;;;;;;;15.45;7.30;;;8.40;99.90;;;;;;6155569;23;20024;-81
2021/04/29 00:15:38;;;;;;;22.20;7.68;;;8.30;99.90;;;;;;6182927;23;20055;-81
2021/04/29 00:18:04;;;;;;;12.77;7.22;;;8.40;99.90;;;;;;6182133;23;20028;-81
2021/04/29 00:20:30;;;;;;;17.95;8.18;;;8.40;99.90;;;;;;6156483;23;20368;-81
2021/04/29 00:22:56;;;;;;;15.85;7.80;;;8.40;99.90;;;;;;6156158;23;20021;-82
2021/04/29 00:25:22;;;;;;;15.55;8.35;;;8.40;99.90;;;;;;6182924;23;20087;-82
2021/04/29 00:27:48;;;;;;;14.50;8.10;;;8.30;99.90;;;;;;6182766;23;20095;-81
2021/04/29 00:30:14;;;;;;;12.55;7.95;;;8.40;99.90;;;;;;6181233;23;20576;-81
2021/04/29 00:32:40;;;;;;;14.07;7.35;;;8.30;99.90;;;;;;6156820;23;20017;-82
2021/04/29 00:35:07;;;;;;;17.25;7.85;;;8.30;99.90;;;;;;6181801;23;20392;-81
2021/04/29 00:37:33;;;;;;;14.02;8.70;;;8.30;99.90;;;;;;6181126;23;20089;-81
2021/04/29 00:39:59;;;;;;;16.08;8.63;;;8.30;99.90;;;;;;6153681;23;20067;-81
2021/04/29 00:42:25;;;;;;;21.45;8.05;;;8.30;99.90;;;;;;6154775;23;20017;-82
2021/04/29 00:44:51;;;;;;;14.35;8.68;;;8.30;99.90;;;;;;6180815;23;20021;-82
2021/04/29 00:47:17;;;;;;;13.27;8.50;;;8.40;99.90;;;;;;6180237;23;20661;-81
2021/04/29 00:49:43;;;;;;;15.93;8.93;;;8.40;99.90;;;;;;6180644;23;20020;-81
2021/04/29 00:52:09;;;;;;;15.45;8.73;;;8.40;99.90;;;;;;6180060;23;20041;-81
2021/04/29 00:54:35;;;;;;;21.75;9.38;;;8.30;99.90;;;;;;6180958;23;20013;-81
2021/04/29 00:57:01;;;;;;;16.20;9.23;;;8.30;99.90;;;;;;6179682;23;20088;-81
2021/04/29 00:59:26;;;;;;;15.13;8.82;;;8.30;99.90;;;;;;6180553;23;20025;-80
2021/04/29 01:02:00;;;;;;;21.42;9.95;;;8.30;99.90;;;;;;6180958;23;20017;-82
2021/04/29 01:04:35;;;;;;;13.43;7.30;;;8.20;99.90;;;;;;6154595;23;20025;-80
2021/04/29 01:07:08;;;;;;;15.55;9.73;;;8.30;99.90;;;;;;6163332;23;20021;-81
2021/04/29 01:09:53;;;;;;;17.45;9.68;;;8.40;99.90;;;;;;6154053;23;20020;-81
2021/04/29 01:12:25;;;;;;;21.02;10.45;;;8.40;99.90;;;;;;6179607;23;20530;-81
2021/04/29 01:14:54;;;;;;;21.00;10.30;;;8.40;99.90;;;;;;6180642;23;20017;-81
2021/04/29 01:17:21;;;;;;;16.30;10.38;;;8.30;99.90;;;;;;6179756;23;20074;-80
2021/04/29 01:20:07;;;;;;;25.27;11.43;;;8.30;99.90;;;;;;6154115;23;20017;-81
2021/04/29 01:22:39;;;;;;;21.67;11.13;;;8.20;99.90;;;;;;6153523;23;20024;-81
2021/04/29 01:25:15;;;;;;;21.42;10.38;;;8.20;99.90;;;;;;6153568;23;20092;-81
2021/04/29 01:27:41;;;;;;;17.27;10.57;;;8.20;99.90;;;;;;6190623;23;20017;-81
2021/04/29 01:30:10;;;;;;;17.85;10.32;;;8.10;99.90;;;;;;6179511;23;20017;-81
2021/04/29 01:32:37;;;;;;;21.45;10.90;;;8.10;99.90;;;;;;6180586;23;20352;-80
2021/04/29 01:35:07;;;;;;;24.15;11.57;;;8.10;99.90;;;;;;6179672;23;20028;-81
2021/04/29 01:37:34;;;;;;;18.83;10.00;;;8.10;99.90;;;;;;6155940;23;595014;-81
2021/04/29 01:40:01;;;;;;;18.55;9.98;;;8.10;99.90;;;;;;6181682;23;20024;-81
2021/04/29 01:42:27;;;;;;;14.32;10.02;;;8.10;99.90;;;;;;6181728;23;20020;-81
2021/04/29 01:44:53;;;;;;;20.17;10.38;;;8.10;99.90;;;;;;6181694;23;20021;-81
2021/04/29 01:47:19;;;;;;;17.08;10.00;;;8.10;99.90;;;;;;6179653;23;20116;-82
2021/04/29 01:49:47;;;;;;;17.80;10.63;;;8.00;99.90;;;;;;6182232;23;20052;-81
2021/04/29 01:52:13;;;;;;;18.20;10.65;;;8.00;99.90;;;;;;6154914;23;20071;-81
2021/04/29 01:54:41;;;;;;;29.38;11.93;;;8.00;99.90;;;;;;6131511;23;20021;-81
2021/04/29 01:57:07;;;;;;;19.42;10.65;;;8.00;99.90;;;;;;6180761;23;20376;-81
2021/04/29 01:59:33;;;;;;;18.02;10.25;;;8.00;99.90;;;;;;6182196;23;20043;-81
2021/04/29 02:01:59;;;;;;;16.73;10.82;;;8.00;99.90;;;;;;6182010;23;20013;-81
2021/04/29 02:04:25;;;;;;;19.15;10.60;;;8.00;99.90;;;;;;6180871;23;20024;-81
2021/04/29 02:06:51;;;;;;;23.60;11.82;;;8.10;99.90;;;;;;6182014;23;20013;-81
2021/04/29 02:09:16;;;;;;;18.98;10.75;;;8.10;99.90;;;;;;6180684;23;20339;-81
2021/04/29 02:11:59;;;;;;;20.02;10.50;;;8.10;99.90;;;;;;6181875;23;20051;-81
2021/04/29 02:14:44;;;;;;;26.50;10.55;;;8.10;99.90;;;;;;6190368;23;20036;-81
2021/04/29 02:17:33;;;;;;;15.70;10.10;;;8.10;99.90;;;;;;6190695;23;20020;-81
2021/04/29 02:20:02;;;;;;;22.75;10.05;;;8.10;99.90;;;;;;6160328;23;20484;-81
2021/04/29 02:22:29;;;;;;;25.67;10.63;;;8.10;99.90;;;;;;6180739;23;20467;-81
2021/04/29 02:24:58;;;;;;;27.73;10.77;;;8.10;99.90;;;;;;6155133;23;20092;-81
2021/04/29 02:27:23;;;;;;;18.38;9.80;;;8.10;99.90;;;;;;6180717;23;20097;-81
2021/04/29 02:29:50;;;;;;;22.17;10.90;;;8.10;99.90;;;;;;6181567;23;20495;-80
2021/04/29 02:32:17;;;;;;;19.83;10.05;;;8.10;99.90;;;;;;6180207;23;20024;-80
2021/04/29 02:34:43;;;;;;;9.70;6.05;;;8.10;99.90;;;;;;6181269;23;20021;-80
2021/04/29 02:37:10;;;;;;;17.23;9.73;;;8.10;99.90;;;;;;6165806;23;20017;-80
2021/04/29 02:39:36;;;;;;;18.17;10.20;;;8.10;99.90;;;;;;6180763;23;20021;-81
2021/04/29 02:42:02;;;;;;;23.58;11.55;;;8.10;99.90;;;;;;6179878;23;20098;-80
2021/04/29 02:44:29;;;;;;;25.55;12.10;;;8.10;99.90;;;;;;6180466;23;20112;-80
2021/04/29 02:46:55;;;;;;;20.38;11.35;;;8.10;99.90;;;;;;6179702;23;20013;-81
2021/04/29 02:49:22;;;;;;;19.30;11.20;;;8.00;99.90;;;;;;6180698;23;20037;-80
2021/04/29 02:51:49;;;;;;;20.67;10.40;;;8.00;99.90;;;;;;6181557;23;20095;-80
2021/04/29 02:54:16;;;;;;;20.40;9.73;;;8.00;99.90;;;;;;6178377;23;20021;-80
2021/04/29 02:56:42;;;;;;;20.40;10.68;;;8.00;99.90;;;;;;6179769;23;20107;-80
2021/04/29 02:59:09;;;;;;;18.10;10.73;;;8.00;99.90;;;;;;6181057;23;20025;-80
2021/04/29 03:01:36;;;;;;;19.30;10.13;;;8.00;99.90;;;;;;6180905;23;20013;-80
2021/04/29 03:04:03;;;;;;;21.67;11.07;;;8.00;99.90;;;;;;6181044;23;20116;-81
2021/04/29 03:06:29;;;;;;;19.17;10.43;;;8.00;99.90;;;;;;6180383;23;20044;-81
2021/04/29 03:08:55;;;;;;;20.27;10.77;;;8.10;99.90;;;;;;6181328;23;20017;-81
2021/04/29 03:11:22;;;;;;;18.73;10.25;;;8.00;99.90;;;;;;6180818;23;20498;-80
2021/04/29 03:13:47;;;;;;;26.48;12.18;;;8.00;99.90;;;;;;6180120;23;20017;-81
2021/04/29 03:16:13;;;;;;;21.25;10.65;;;8.00;99.90;;;;;;6178932;23;20064;-81
2021/04/29 03:18:39;;;;;;;17.25;10.85;;;8.00;99.90;;;;;;6180711;23;20439;-80
2021/04/29 03:21:05;;;;;;;23.40;11.45;;;8.00;99.90;;;;;;6181583;23;20021;-81
2021/04/29 03:23:32;;;;;;;17.48;10.40;;;7.90;99.90;;;;;;6180502;23;20032;-81
2021/04/29 03:25:58;;;;;;;18.10;10.90;;;7.90;99.90;;;;;;6181267;23;20103;-81
2021/04/29 03:28:24;;;;;;;23.85;11.68;;;7.90;99.90;;;;;;6179999;23;20352;-80
2021/04/29 03:30:50;;;;;;;28.65;12.05;;;7.80;99.90;;;;;;6181302;23;20031;-80
2021/04/29 03:33:15;;;;;;;21.35;10.55;;;7.80;99.90;;;;;;6180272;23;20020;-80
2021/04/29 03:35:41;;;;;;;20.73;12.07;;;7.80;99.90;;;;;;6180079;23;20013;-80
2021/04/29 03:38:07;;;;;;;18.48;9.05;;;7.90;99.90;;;;;;6180547;23;20021;-80
2021/04/29 03:40:34;;;;;;;21.98;10.70;;;7.80;99.90;;;;;;6153573;23;20028;-80
2021/04/29 03:43:00;;;;;;;20.13;11.45;;;7.80;99.90;;;;;;6180871;23;20021;-80
2021/04/29 03:45:26;;;;;;;18.33;8.75;;;7.80;99.90;;;;;;6154217;23;20095;-81
2021/04/29 03:47:52;;;;;;;20.23;9.65;;;7.80;99.90;;;;;;6154943;23;20021;-81
2021/04/29 03:50:19;;;;;;;21.45;11.25;;;7.90;99.90;;;;;;6153874;23;20454;-81
2021/04/29 03:52:45;;;;;;;24.35;11.65;;;7.80;99.90;;;;;;6180981;23;20444;-81
2021/04/29 03:55:11;;;;;;;20.80;11.32;;;7.80;99.90;;;;;;6180485;23;20045;-80
2021/04/29 03:57:37;;;;;;;22.58;13.10;;;7.80;99.90;;;;;;6154556;23;20105;-80
2021/04/29 04:00:05;;;;;;;23.95;12.55;;;7.90;99.90;;;;;;6181266;23;20392;-81
2021/04/29 04:02:30;;;;;;;26.58;14.63;;;7.80;99.90;;;;;;6179995;23;20025;-80
2021/04/29 04:04:56;;;;;;;23.92;13.57;;;7.80;99.90;;;;;;6181180;23;20020;-80
2021/04/29 04:07:22;;;;;;;31.02;15.70;;;7.80;99.90;;;;;;6180071;23;20021;-80
2021/04/29 04:09:48;;;;;;;29.27;14.80;;;7.80;99.90;;;;;;6181115;23;20021;-80
2021/04/29 04:12:14;;;;;;;28.73;14.82;;;7.90;99.90;;;;;;6129850;23;20029;-80
2021/04/29 04:14:39;;;;;;;25.90;15.57;;;7.80;99.90;;;;;;6179114;23;20547;-80
2021/04/29 04:17:05;;;;;;;40.78;18.30;;;7.80;99.90;;;;;;6180907;23;20363;-80
2021/04/29 04:19:32;;;;;;;37.03;18.42;;;7.90;99.90;;;;;;6179563;23;20017;-81
2021/04/29 04:21:57;;;;;;;31.98;17.13;;;7.80;99.90;;;;;;6180725;23;20026;-81
2021/04/29 04:24:23;;;;;;;32.47;19.73;;;7.90;99.90;;;;;;6180111;23;20095;-80
2021/04/29 04:26:49;;;;;;;34.55;22.40;;;7.90;99.90;;;;;;6180517;23;20013;-80
2021/04/29 04:29:15;;;;;;;31.75;21.05;;;7.80;99.90;;;;;;6154351;23;20032;-81
2021/04/29 04:31:40;;;;;;;31.58;18.25;;;7.90;99.90;;;;;;6129664;23;20017;-80
2021/04/29 04:34:06;;;;;;;44.42;22.38;;;7.80;99.90;;;;;;6180987;23;20025;-80
2021/04/29 04:36:32;;;;;;;34.58;20.95;;;7.90;99.90;;;;;;6182315;23;20033;-80
2021/04/29 04:38:58;;;;;;;37.85;22.50;;;7.90;99.90;;;;;;6131415;23;20021;-80
2021/04/29 04:41:24;;;;;;;35.83;21.63;;;7.90;99.90;;;;;;6181749;23;20021;-81
2021/04/29 04:43:50;;;;;;;36.55;21.20;;;7.90;99.90;;;;;;6182245;23;20024;-80
2021/04/29 04:46:16;;;;;;;33.28;20.48;;;7.90;99.90;;;;;;6182037;23;20021;-80
2021/04/29 04:48:43;;;;;;;34.50;19.58;;;7.90;99.90;;;;;;6182383;23;20021;-80
2021/04/29 04:51:09;;;;;;;31.35;16.25;;;7.90;99.90;;;;;;6182451;23;20095;-80
2021/04/29 04:53:35;;;;;;;30.48;18.60;;;7.90;99.90;;;;;;6181720;23;20447;-80
2021/04/29 04:56:01;;;;;;;30.83;16.90;;;7.90;99.90;;;;;;6182854;23;20023;-80
2021/04/29 04:58:27;;;;;;;31.70;18.13;;;7.90;99.90;;;;;;6181751;23;20021;-81
2021/04/29 05:00:53;;;;;;;24.08;14.93;;;7.90;99.90;;;;;;6155709;23;20020;-80
2021/04/29 05:03:19;;;;;;;34.85;19.83;;;7.90;99.90;;;;;;6181981;23;20095;-80
2021/04/29 05:05:45;;;;;;;18.58;11.50;;;7.90;99.90;;;;;;6155550;23;20013;-80
2021/04/29 05:08:12;;;;;;;42.42;20.40;;;7.90;99.90;;;;;;6156212;23;20017;-80
2021/04/29 05:10:38;;;;;;;27.63;15.45;;;7.90;99.90;;;;;;6181616;23;20044;-80
2021/04/29 05:13:05;;;;;;;28.33;17.70;;;7.90;99.90;;;;;;6182192;23;20017;-80
2021/04/29 05:15:34;;;;;;;31.50;19.80;;;7.90;99.90;;;;;;6180970;23;20021;-80
2021/04/29 05:18:00;;;;;;;32.03;16.17;;;7.90;99.90;;;;;;6182382;23;20024;-81
2021/04/29 05:20:27;;;;;;;30.10;19.02;;;7.90;99.90;;;;;;6181229;23;20021;-80
2021/04/29 05:22:53;;;;;;;36.92;20.20;;;7.90;99.90;;;;;;6182670;23;20051;-80
2021/04/29 05:25:20;;;;;;;41.70;21.85;;;7.90;99.90;;;;;;6181382;23;20059;-81
2021/04/29 05:27:46;;;;;;;39.72;22.30;;;7.90;99.90;;;;;;6155906;23;20013;-80
2021/04/29 05:30:12;;;;;;;32.50;21.33;;;7.90;99.90;;;;;;6155872;23;20013;-81
2021/04/29 05:32:38;;;;;;;40.72;18.45;;;8.00;99.90;;;;;;6180976;23;20025;-81
2021/04/29 05:35:04;;;;;;;39.50;20.83;;;8.00;99.90;;;;;;6182499;23;20025;-81
2021/04/29 05:37:31;;;;;;;40.38;21.70;;;8.10;99.90;;;;;;6154256;23;20020;-81
2021/04/29 05:39:56;;;;;;;40.05;19.70;;;8.10;99.90;;;;;;6156127;23;20020;-81
2021/04/29 05:42:22;;;;;;;33.67;19.02;;;8.10;99.90;;;;;;6180179;23;20099;-81
2021/04/29 05:44:48;;;;;;;27.10;15.23;;;8.20;99.90;;;;;;6181974;23;20032;-81
2021/04/29 05:47:14;;;;;;;32.75;18.80;;;8.20;99.90;;;;;;6155958;23;20451;-80
2021/04/29 05:49:42;;;;;;;39.00;18.95;;;8.20;99.90;;;;;;6180535;23;20024;-80
2021/04/29 05:52:09;;;;;;;39.42;17.40;;;8.30;99.90;;;;;;6181928;23;20049;-80
2021/04/29 05:54:35;;;;;;;36.08;19.02;;;8.30;99.90;;;;;;6181033;23;20308;-80
2021/04/29 05:57:02;;;;;;;35.90;19.83;;;8.40;99.90;;;;;;6155823;23;20075;-80
2021/04/29 05:59:28;;;;;;;32.92;18.38;;;8.50;99.90;;;;;;6154518;23;20029;-80
2021/04/29 06:01:54;;;;;;;32.88;19.13;;;8.50;99.90;;;;;;6155973;23;20075;-81
2021/04/29 06:04:20;;;;;;;26.15;17.73;;;8.50;99.90;;;;;;6182142;23;20025;-81
2021/04/29 06:06:50;;;;;;;25.98;15.82;;;8.60;99.90;;;;;;6155157;23;20021;-80
2021/04/29 06:09:16;;;;;;;29.37;17.87;;;8.70;99.90;;;;;;6181390;23;20386;-80
2021/04/29 06:11:42;;;;;;;31.80;17.85;;;8.80;99.90;;;;;;6180187;23;20020;-81
2021/04/29 06:14:12;;;;;;;31.77;16.77;;;8.90;99.90;;;;;;6182132;23;20087;-81
2021/04/29 06:16:39;;;;;;;24.63;17.05;;;8.90;99.90;;;;;;6154713;23;20429;-81
2021/04/29 06:19:05;;;;;;;27.73;16.90;;;8.90;99.90;;;;;;6155206;23;20040;-81
2021/04/29 06:21:31;;;;;;;29.02;16.92;;;9.00;99.90;;;;;;6180617;23;20021;-81
2021/04/29 06:23:57;;;;;;;27.23;16.75;;;9.00;99.90;;;;;;6180463;23;20021;-81
2021/04/29 06:26:23;;;;;;;31.77;15.88;;;9.00;99.90;;;;;;6181349;23;20024;-81
2021/04/29 06:28:49;;;;;;;26.05;17.45;;;9.00;99.90;;;;;;6181236;23;20017;-81
2021/04/29 06:31:15;;;;;;;24.15;15.57;;;9.00;99.90;;;;;;6181437;23;20071;-81
2021/04/29 06:33:41;;;;;;;29.67;16.48;;;8.90;99.90;;;;;;6154460;23;20021;-81
2021/04/29 06:36:07;;;;;;;22.75;14.73;;;9.00;99.90;;;;;;6181083;23;20013;-81
2021/04/29 06:38:35;;;;;;;23.63;15.80;;;9.00;99.90;;;;;;6189193;23;20067;-81
2021/04/29 06:41:01;;;;;;;23.95;15.15;;;9.10;99.90;;;;;;6155644;23;20017;-81
2021/04/29 06:43:26;;;;;;;22.60;15.40;;;9.00;99.90;;;;;;6154524;23;20039;-81
2021/04/29 06:45:53;;;;;;;25.30;14.90;;;9.00;99.90;;;;;;6130891;23;20020;-81
2021/04/29 06:48:19;;;;;;;27.75;15.85;;;9.10;99.90;;;;;;6179669;23;20032;-81
2021/04/29 06:50:45;;;;;;;24.90;13.80;;;9.00;99.90;;;;;;6180771;23;20149;-81
2021/04/29 06:53:11;;;;;;;27.95;15.40;;;9.00;99.90;;;;;;6181170;23;20458;-81
2021/04/29 06:55:37;;;;;;;25.27;14.60;;;9.10;99.90;;;;;;6180499;23;20020;-80
2021/04/29 06:58:03;;;;;;;22.80;13.88;;;9.10;99.90;;;;;;6181551;23;20020;-80
2021/04/29 07:00:29;;;;;;;24.15;15.88;;;9.10;99.90;;;;;;6154243;23;20044;-80
2021/04/29 07:02:56;;;;;;;21.92;13.60;;;9.10;99.90;;;;;;6154691;23;20013;-81
2021/04/29 07:05:23;;;;;;;27.92;16.27;;;9.10;99.90;;;;;;6180957;23;20017;-81
2021/04/29 07:07:53;;;;;;;31.98;17.60;;;9.10;99.90;;;;;;6180581;23;20101;-80
2021/04/29 07:10:21;;;;;;;24.40;16.80;;;9.20;99.90;;;;;;6181138;23;20021;-81
2021/04/29 07:12:47;;;;;;;21.00;12.88;;;9.30;99.90;;;;;;6154050;23;20432;-80
2021/04/29 07:15:14;;;;;;;27.55;14.50;;;9.30;99.90;;;;;;6154785;23;20017;-81
2021/04/29 07:17:41;;;;;;;25.85;14.68;;;9.40;99.90;;;;;;6180289;23;20100;-83
2021/04/29 07:20:10;;;;;;;30.45;15.45;;;9.40;99.90;;;;;;6181433;23;20021;-83
2021/04/29 07:22:36;;;;;;;27.30;16.05;;;9.40;99.90;;;;;;6154722;23;20039;-83
2021/04/29 07:25:03;;;;;;;26.48;15.45;;;9.40;99.90;;;;;;6180686;23;20021;-84
2021/04/29 07:27:29;;;;;;;30.77;15.10;;;9.50;99.90;;;;;;6180077;23;20447;-85
2021/04/29 07:29:55;;;;;;;30.17;13.13;;;9.50;99.90;;;;;;6129492;23;20139;-85
2021/04/29 07:32:21;;;;;;;24.63;13.25;;;9.50;99.90;;;;;;6179163;23;20140;-84
2021/04/29 07:34:47;;;;;;;21.92;13.13;;;9.50;99.90;;;;;;6153497;23;20028;-84
2021/04/29 07:37:12;;;;;;;28.27;15.20;;;9.60;99.90;;;;;;6111049;23;20356;-82
2021/04/29 07:39:38;;;;;;;23.02;14.27;;;9.70;99.90;;;;;;6179908;23;20025;-82
2021/04/29 07:42:04;;;;;;;25.35;14.50;;;9.70;99.90;;;;;;6130095;23;20013;-82
2021/04/29 07:44:30;;;;;;;21.60;13.93;;;9.90;99.90;;;;;;6154585;23;20025;-84
2021/04/29 07:46:56;;;;;;;28.67;14.50;;;10.00;99.90;;;;;;6180313;23;20435;-84
2021/04/29 07:49:22;;;;;;;25.48;13.68;;;10.10;99.90;;;;;;6154987;23;20048;-85
2021/04/29 07:51:47;;;;;;;21.15;13.95;;;10.20;99.90;;;;;;6153739;23;20021;-85
2021/04/29 07:54:15;;;;;;;21.15;13.13;;;10.20;99.90;;;;;;6154866;23;20067;-85
2021/04/29 07:56:42;;;;;;;23.52;13.35;;;10.10;99.90;;;;;;6179912;23;20427;-86
2021/04/29 07:59:08;;;;;;;27.33;15.38;;;10.10;99.90;;;;;;6130150;23;20025;-85
2021/04/29 08:01:34;;;;;;;21.02;13.77;;;10.10;99.90;;;;;;6178040;23;20458;-85
2021/04/29 08:04:01;;;;;;;27.45;14.27;;;10.10;99.90;;;;;;6129792;23;20109;-84
2021/04/29 08:06:28;;;;;;;20.85;14.48;;;10.10;99.90;;;;;;6180777;23;20037;-85
2021/04/29 08:08:54;;;;;;;28.63;15.75;;;10.10;99.90;;;;;;6179304;23;20025;-85
2021/04/29 08:11:21;;;;;;;33.72;15.20;;;10.10;99.90;;;;;;6155573;23;20017;-87
2021/04/29 08:13:46;;;;;;;33.28;16.70;;;10.10;99.90;;;;;;6181068;23;20017;-87
2021/04/29 08:16:12;;;;;;;33.80;16.67;;;10.10;99.90;;;;;;6131188;23;20013;-85
2021/04/29 08:18:38;;;;;;;26.20;15.48;;;10.00;99.90;;;;;;6129259;23;20029;-86
2021/04/29 08:21:05;;;;;;;30.88;16.55;;;9.90;99.90;;;;;;6131435;23;20331;-86
2021/04/29 08:23:31;;;;;;;25.55;16.23;;;9.90;99.90;;;;;;6181000;23;20021;-85
2021/04/29 08:25:57;;;;;;;33.30;17.30;;;9.90;99.90;;;;;;6106333;23;20396;-85
2021/04/29 08:28:23;;;;;;;34.45;16.38;;;9.90;99.90;;;;;;6130701;23;20052;-85
2021/04/29 08:30:49;;;;;;;28.40;16.48;;;9.80;99.90;;;;;;6155571;23;20021;-85
2021/04/29 08:33:14;;;;;;;31.48;16.13;;;9.80;99.90;;;;;;6107454;23;20032;-85
2021/04/29 08:35:40;;;;;;;20.98;14.88;;;9.80;99.90;;;;;;6155154;23;20021;-86
2021/04/29 08:38:06;;;;;;;27.85;15.07;;;9.80;99.90;;;;;;6132322;23;20459;-86
2021/04/29 08:40:32;;;;;;;31.60;15.45;;;9.70;99.90;;;;;;6181582;23;20017;-85
2021/04/29 08:42:58;;;;;;;22.65;15.02;;;9.70;99.90;;;;;;6130430;23;20034;-86
2021/04/29 08:45:24;;;;;;;22.27;14.88;;;9.70;99.90;;;;;;6180199;23;20023;-86
2021/04/29 08:47:53;;;;;;;24.40;14.85;;;9.70;99.90;;;;;;6180614;23;20033;-85
2021/04/29 08:50:21;;;;;;;24.67;17.08;;;9.70;99.90;;;;;;6182016;23;20435;-87
2021/04/29 08:52:47;;;;;;;24.35;14.85;;;9.80;99.90;;;;;;6155132;23;20447;-86
2021/04/29 08:55:25;;;;;;;21.70;15.57;;;9.80;99.90;;;;;;6155925;23;20020;-86
2021/04/29 08:57:52;;;;;;;23.13;16.33;;;9.80;99.90;;;;;;6154791;23;20510;-86
2021/04/29 09:00:20;;;;;;;31.35;18.77;;;9.70;99.90;;;;;;6154773;23;20029;-87
2021/04/29 09:02:46;;;;;;;26.10;17.65;;;9.70;99.90;;;;;;6154390;23;20031;-86
2021/04/29 09:05:14;;;;;;;25.25;17.13;;;9.70;99.90;;;;;;6131492;23;20017;-87
2021/04/29 09:08:04;;;;;;;26.35;16.15;;;9.70;99.90;;;;;;6154456;23;20163;-87
2021/04/29 09:10:35;;;;;;;25.08;18.23;;;9.70;99.90;;;;;;6182232;23;20083;-89
2021/04/29 09:13:16;;;;;;;22.17;16.75;;;9.60;99.90;;;;;;6130772;23;20045;-84
2021/04/29 09:15:42;;;;;;;29.17;18.40;;;9.60;99.90;;;;;;6154685;23;20017;-85
2021/04/29 09:18:13;;;;;;;24.67;16.90;;;9.60;99.90;;;;;;6131078;23;20032;-85
2021/04/29 09:20:51;;;;;;;26.60;17.70;;;9.60;99.90;;;;;;6155499;23;20075;-89
2021/04/29 09:23:20;;;;;;;33.70;17.95;;;9.60;99.90;;;;;;6181696;23;20452;-86
2021/04/29 09:26:04;;;;;;;35.88;21.50;;;9.60;99.90;;;;;;6155531;23;20028;-86
2021/04/29 09:28:36;;;;;;;26.17;20.10;;;9.70;99.90;;;;;;6191376;23;20051;-87
2021/04/29 09:31:04;;;;;;;28.95;19.65;;;9.70;99.90;;;;;;6176600;23;20017;-86
2021/04/29 09:33:31;;;;;;;23.95;16.83;;;9.80;99.90;;;;;;6155427;23;20031;-87
2021/04/29 09:35:57;;;;;;;29.80;19.88;;;9.80;99.90;;;;;;6154444;23;20020;-86
2021/04/29 09:38:31;;;;;;;38.83;22.27;;;9.80;99.90;;;;;;6155450;23;20025;-86
2021/04/29 09:40:57;;;;;;;33.55;22.83;;;9.90;99.90;;;;;;6181313;23;20064;-87
2021/04/29 09:43:23;;;;;;;28.35;20.95;;;10.00;99.90;;;;;;6180734;23;20025;-86
2021/04/29 09:45:57;;;;;;;34.75;21.95;;;10.00;99.90;;;;;;6105312;23;20085;-86
2021/04/29 09:48:33;;;;;;;28.00;20.17;;;10.20;99.90;;;;;;6155244;23;20021;-87
2021/04/29 09:50:59;;;;;;;28.70;19.20;;;10.20;99.90;;;;;;6164460;23;20028;-86
2021/04/29 09:53:24;;;;;;;30.85;20.70;;;10.30;99.90;;;;;;6181962;23;20017;-86
2021/04/29 09:55:50;;;;;;;24.73;18.75;;;10.40;99.90;;;;;;6179387;23;20012;-85
2021/04/29 09:58:21;;;;;;;29.63;20.48;;;10.40;99.90;;;;;;6131121;23;20037;-84
2021/04/29 10:00:56;;;;;;;31.13;20.33;;;10.50;99.90;;;;;;6153712;23;20056;-85
2021/04/29 10:03:21;;;;;;;26.15;20.30;;;10.60;99.90;;;;;;6140317;23;20803;-84
2021/04/29 10:05:53;;;;;;;31.88;20.98;;;10.60;99.90;;;;;;6179630;23;20128;-84
2021/04/29 10:08:23;;;;;;;26.27;19.13;;;10.70;99.90;;;;;;6154887;23;20388;-85
2021/04/29 10:10:52;;;;;;;32.33;22.80;;;10.70;99.90;;;;;;6163912;23;20108;-84
2021/04/29 10:13:19;;;;;;;31.55;21.00;;;10.70;99.90;;;;;;6180845;23;20095;-86
2021/04/29 10:15:46;;;;;;;28.00;21.63;;;10.80;99.90;;;;;;6150507;23;20017;-86
2021/04/29 10:18:13;;;;;;;35.50;20.60;;;10.80;99.90;;;;;;6179915;23;20024;-84
2021/04/29 10:20:45;;;;;;;31.77;21.77;;;10.80;99.90;;;;;;6181313;23;20029;-84
2021/04/29 10:23:17;;;;;;;25.27;20.35;;;10.80;99.90;;;;;;6153740;23;20021;-84
2021/04/29 10:25:49;;;;;;;31.27;21.40;;;10.70;99.90;;;;;;6191008;23;20017;-83
2021/04/29 10:28:15;;;;;;;26.63;19.45;;;10.70;99.90;;;;;;6154473;23;20497;-84
2021/04/29 10:30:41;;;;;;;33.50;22.50;;;10.60;99.90;;;;;;6126622;23;20076;-85
2021/04/29 10:33:18;;;;;;;28.30;20.48;;;10.60;99.90;;;;;;6129952;23;20013;-84
2021/04/29 10:35:56;;;;;;;25.42;21.15;;;10.60;99.90;;;;;;6154900;23;20024;-85
2021/04/29 10:38:33;;;;;;;38.42;24.77;;;10.60;99.90;;;;;;6180340;23;20032;-84
2021/04/29 10:41:15;;;;;;;29.80;21.77;;;10.50;99.90;;;;;;6154066;23;20555;-82
2021/04/29 10:43:41;;;;;;;26.45;20.08;;;10.40;99.90;;;;;;6181849;23;20398;-84
2021/04/29 10:46:07;;;;;;;35.70;24.48;;;10.30;99.90;;;;;;6130562;23;20091;-83
2021/04/29 10:48:38;;;;;;;36.20;23.25;;;10.30;99.90;;;;;;6132479;23;20035;-86
2021/04/29 10:51:11;;;;;;;35.78;25.55;;;10.30;99.90;;;;;;6155901;23;20013;-83
2021/04/29 10:53:38;;;;;;;35.78;26.55;;;10.40;99.90;;;;;;6192034;23;20064;-84
2021/04/29 10:56:10;;;;;;;34.20;26.17;;;10.50;99.90;;;;;;6159011;23;20021;-83
2021/04/29 10:58:37;;;;;;;28.70;22.75;;;10.60;99.90;;;;;;6167563;23;20433;-84
2021/04/29 11:01:05;;;;;;;31.23;22.40;;;10.60;99.90;;;;;;6130059;23;20025;-85
2021/04/29 11:03:36;;;;;;;29.15;22.17;;;10.70;99.90;;;;;;6181354;23;20028;-84
2021/04/29 11:06:19;;;;;;;28.15;21.67;;;10.70;99.90;;;;;;6192851;23;20438;-90
2021/04/29 11:08:50;;;;;;;31.17;20.50;;;10.80;99.90;;;;;;6179462;23;20017;-82
2021/04/29 11:11:21;;;;;;;26.88;19.80;;;10.80;99.90;;;;;;6154547;23;20087;-82
2021/04/29 11:14:07;;;;;;;24.45;19.83;;;10.80;99.90;;;;;;6130543;23;20027;-87
2021/04/29 11:16:51;;;;;;;25.80;18.35;;;10.80;99.90;;;;;;6154669;23;20075;-84
2021/04/29 11:19:37;;;;;;;23.00;18.20;;;10.70;99.90;;;;;;6181443;23;20017;-84
2021/04/29 11:22:19;;;;;;;30.75;20.85;;;10.70;99.90;;;;;;6156409;23;20096;-88
2021/04/29 11:24:50;;;;;;;30.02;21.50;;;10.70;99.90;;;;;;6167572;23;20013;-85
2021/04/29 11:27:22;;;;;;;20.90;18.70;;;10.60;99.90;;;;;;6157747;23;20089;-87
2021/04/29 11:29:48;;;;;;;28.35;20.88;;;10.60;99.90;;;;;;6184245;23;20534;-87
2021/04/29 11:32:15;;;;;;;32.55;23.42;;;10.50;99.90;;;;;;6185840;23;20012;-88
2021/04/29 11:34:46;;;;;;;35.10;24.40;;;10.40;99.90;;;;;;6183494;23;20084;-84
2021/04/29 11:37:13;;;;;;;38.20;25.67;;;10.40;99.90;;;;;;6155186;23;20162;-85
2021/04/29 11:39:40;;;;;;;38.70;25.55;;;10.30;99.90;;;;;;6180985;23;20017;-85
2021/04/29 11:42:10;;;;;;;38.75;26.30;;;10.20;99.90;;;;;;6180729;23;20021;-88
2021/04/29 11:44:36;;;;;;;32.57;24.90;;;10.20;99.90;;;;;;6182272;23;20117;-86
2021/04/29 11:47:13;;;;;;;30.38;22.83;;;10.10;99.90;;;;;;6180091;23;20017;-85
2021/04/29 11:49:38;;;;;;;29.52;22.73;;;10.10;99.90;;;;;;6184087;23;20121;-85
2021/04/29 11:52:04;;;;;;;36.33;23.73;;;10.00;99.90;;;;;;6183212;23;20026;-85
2021/04/29 11:54:30;;;;;;;29.63;20.55;;;10.00;99.90;;;;;;6183032;23;20045;-85
2021/04/29 11:57:00;;;;;;;37.58;23.27;;;9.90;99.90;;;;;;6183050;23;20491;-88
2021/04/29 11:59:31;;;;;;;30.20;20.48;;;9.90;99.90;;;;;;6194939;23;20035;-87
2021/04/29 12:02:00;;;;;;;31.25;20.25;;;9.90;99.90;;;;;;6183835;23;20067;-91
2021/04/29 12:04:26;;;;;;;36.75;18.83;;;9.80;99.90;;;;;;6184670;23;20032;-87
2021/04/29 12:06:54;;;;;;;29.95;15.55;;;9.80;99.90;;;;;;6184816;23;20013;-85
2021/04/29 12:09:25;;;;;;;31.23;15.93;;;9.80;99.90;;;;;;6183265;23;20078;-86
2021/04/29 12:11:52;;;;;;;32.70;15.98;;;9.80;99.90;;;;;;6183365;23;20478;-86
2021/04/29 12:14:26;;;;;;;25.10;13.95;;;9.70;99.90;;;;;;6184481;23;20041;-88
2021/04/29 12:16:59;;;;;;;28.25;14.38;;;9.60;99.90;;;;;;6158676;23;20345;-86
2021/04/29 12:19:32;;;;;;;34.05;15.93;;;9.50;99.90;;;;;;6194984;23;20020;-85
2021/04/29 12:21:59;;;;;;;18.83;10.75;;;9.50;99.90;;;;;;6192958;23;20021;-90
2021/04/29 12:24:28;;;;;;;18.73;12.27;;;9.40;99.90;;;;;;6183507;23;20025;-86
2021/04/29 12:26:54;;;;;;;17.35;12.02;;;9.30;99.90;;;;;;6183245;23;20021;-87
2021/04/29 12:29:21;;;;;;;23.15;13.70;;;9.30;99.90;;;;;;6182741;23;20020;-88
2021/04/29 12:31:58;;;;;;;22.80;11.70;;;9.20;99.90;;;;;;6184653;23;20024;-87
2021/04/29 12:34:25;;;;;;;16.17;11.05;;;9.20;99.90;;;;;;6159178;23;20032;-87
2021/04/29 12:37:00;;;;;;;17.42;10.00;;;9.10;99.90;;;;;;6157872;23;20028;-88
2021/04/29 12:39:32;;;;;;;22.42;13.63;;;9.00;99.90;;;;;;6192167;23;20744;-90